Time;durP1;ratioP1;P1;durP2;ratioP2;P2;SDS_P1;SDS_P2;PMS_P1;PMS_P2;Temp;Humidity;BMP_temperature;BMP_pressure;BME280_temperature;BME280_humidity;BME280_pressure;Samples;Min_cycle;Max_cycle;Signal;HPM_P1;HPM_P2
2023/04/05 00:01:12;;;;;;;15.30;13.90;;;;;;;-0.85;100.00;92169.00;5104996;28;20257;-75
2023/04/05 00:03:38;;;;;;;16.73;15.23;;;;;;;-0.43;100.00;92224.34;5110055;28;20224;-75
2023/04/05 00:06:05;;;;;;;15.03;13.83;;;;;;;-0.42;100.00;92200.28;5108288;28;20231;-75
2023/04/05 00:08:30;;;;;;;14.77;13.47;;;;;;;-0.53;100.00;92194.13;5109414;28;20176;-75
2023/04/05 00:10:56;;;;;;;15.77;14.47;;;;;;;-0.21;100.00;92233.84;5109268;28;20228;-76
2023/04/05 00:13:22;;;;;;;16.00;14.53;;;;;;;-0.44;100.00;92227.91;5109892;28;20210;-75
2023/04/05 00:15:47;;;;;;;16.07;14.57;;;;;;;-0.62;100.00;92207.47;5111842;28;20303;-75
2023/04/05 00:18:21;;;;;;;15.20;14.03;;;;;;;-0.47;100.00;92210.41;5109592;28;20202;-74
2023/04/05 00:20:55;;;;;;;15.37;13.97;;;;;;;-0.70;100.00;92187.31;5109511;28;20748;-74
2023/04/05 00:23:21;;;;;;;14.77;13.47;;;;;;;-0.58;100.00;92224.00;5109925;28;20211;-75
2023/04/05 00:25:47;;;;;;;16.23;14.60;;;;;;;-0.52;100.00;92205.16;5109336;28;20215;-75
2023/04/05 00:28:12;;;;;;;14.93;13.50;;;;;;;-1.16;100.00;92090.69;5109684;28;20180;-76
2023/04/05 00:30:38;;;;;;;15.30;13.90;;;;;;;-0.34;100.00;92231.47;5108398;28;20216;-76
2023/04/05 00:33:04;;;;;;;15.13;13.83;;;;;;;-0.60;100.00;92223.44;5109170;28;20208;-76
2023/04/05 00:35:30;;;;;;;15.63;14.10;;;;;;;-0.38;100.00;92232.16;5113183;28;21118;-75
2023/04/05 00:37:55;;;;;;;14.30;12.97;;;;;;;-0.34;100.00;92228.91;5112740;28;20229;-76
2023/04/05 00:40:22;;;;;;;14.53;12.87;;;;;;;-0.36;100.00;92235.28;5114292;28;20226;-76
2023/04/05 00:42:47;;;;;;;13.93;12.63;;;;;;;-0.58;100.00;92190.69;5112445;28;20203;-76
2023/04/05 00:45:12;;;;;;;15.33;13.77;;;;;;;-0.40;100.00;92234.16;5112559;28;20257;-75
2023/04/05 00:47:40;;;;;;;14.03;12.73;;;;;;;-0.47;100.00;92216.31;5111473;28;20176;-75
2023/04/05 00:50:07;;;;;;;14.43;13.37;;;;;;;-0.42;100.00;92220.78;5111540;28;20258;-75
2023/04/05 00:52:34;;;;;;;15.23;14.07;;;;;;;-0.45;100.00;92218.66;5112488;28;20196;-75
2023/04/05 00:55:00;;;;;;;12.77;11.80;;;;;;;-0.46;100.00;92225.56;5114164;28;20233;-74
2023/04/05 00:57:25;;;;;;;13.67;12.67;;;;;;;-0.29;100.00;92243.63;5110722;28;20204;-75
2023/04/05 00:59:51;;;;;;;14.17;13.03;;;;;;;-0.27;100.00;92233.94;5111768;28;20228;-76
2023/04/05 01:02:32;;;;;;;13.33;12.07;;;;;;;-0.27;100.00;92244.19;5112899;28;20198;-75
2023/04/05 01:05:03;;;;;;;13.87;12.70;;;;;;;-0.27;100.00;92241.63;5112505;28;20231;-76
2023/04/05 01:08:18;;;;;;;13.70;12.50;;;;;;;-0.34;100.00;92221.22;5111442;28;20179;-76
2023/04/05 01:10:50;;;;;;;13.30;12.40;;;;;;;-0.37;100.00;92243.97;5101651;28;20259;-75
2023/04/05 01:13:16;;;;;;;14.30;13.23;;;;;;;-0.34;100.00;92251.19;5113071;28;20185;-75
2023/04/05 01:15:42;;;;;;;13.80;12.77;;;;;;;-0.52;100.00;92231.59;5111865;28;20271;-75
2023/04/05 01:18:10;;;;;;;14.37;13.27;;;;;;;-0.59;100.00;92232.69;5111857;28;20214;-75
2023/04/05 01:20:41;;;;;;;14.20;13.07;;;;;;;-0.50;100.00;92252.63;5112060;28;20267;-75
2023/04/05 01:23:37;;;;;;;14.33;13.23;;;;;;;-0.29;100.00;92241.84;5111880;28;20216;-76
2023/04/05 01:26:41;;;;;;;13.67;12.57;;;;;;;-0.23;100.00;92260.69;5111405;28;20295;-75
2023/04/05 01:29:37;;;;;;;12.63;11.83;;;;;;;-0.36;100.00;92258.34;5018471;28;20231;-75
2023/04/05 01:32:17;;;;;;;13.17;12.27;;;;;;;-0.21;100.00;92248.44;5026779;28;21347;-76
2023/04/05 01:35:09;;;;;;;12.40;11.50;;;;;;;-0.25;100.00;92221.69;5090559;27;20224;-76
2023/04/05 01:37:37;;;;;;;14.57;13.27;;;;;;;-0.34;100.00;92238.38;5110431;28;20192;-75
2023/04/05 01:40:05;;;;;;;13.43;12.43;;;;;;;-0.37;100.00;92251.66;5109647;28;20227;-75
2023/04/05 01:42:30;;;;;;;12.73;11.73;;;;;;;-0.43;100.00;92244.84;5111021;28;20670;-76
2023/04/05 01:44:57;;;;;;;13.23;12.13;;;;;;;-0.51;100.00;92227.22;5110033;27;20231;-74
2023/04/05 01:47:22;;;;;;;13.43;12.53;;;;;;;-0.45;100.00;92252.00;5110207;28;20283;-75
2023/04/05 01:49:48;;;;;;;14.03;13.07;;;;;;;-0.53;100.00;92242.81;5112263;28;20235;-75
2023/04/05 01:52:13;;;;;;;12.30;11.50;;;;;;;-0.56;100.00;92245.06;5113795;28;20239;-76
2023/04/05 01:54:39;;;;;;;13.17;12.03;;;;;;;-0.70;100.00;92211.16;5110998;27;20236;-76
2023/04/05 01:57:04;;;;;;;12.63;11.73;;;;;;;-0.66;100.00;92240.47;5111716;28;20248;-76
2023/04/05 01:59:30;;;;;;;12.83;11.93;;;;;;;-0.40;100.00;92252.09;5109160;27;20184;-75
2023/04/05 02:01:56;;;;;;;13.20;12.13;;;;;;;-0.42;100.00;92243.88;5111446;28;20216;-75
2023/04/05 02:04:21;;;;;;;13.37;12.20;;;;;;;-0.35;100.00;92247.09;5110197;28;20230;-74
2023/04/05 02:06:47;;;;;;;12.60;11.73;;;;;;;-0.69;100.00;92207.59;5111932;28;20184;-74
2023/04/05 02:09:12;;;;;;;12.20;11.30;;;;;;;-0.22;100.00;92249.44;5110629;28;20198;-75
2023/04/05 02:11:37;;;;;;;13.27;12.37;;;;;;;-0.36;100.00;92238.59;5110364;28;20216;-76
2023/04/05 02:14:03;;;;;;;13.20;12.30;;;;;;;-0.25;100.00;92247.34;5109836;28;20187;-76
2023/04/05 02:16:32;;;;;;;11.57;10.87;;;;;;;-0.14;100.00;92242.19;5110703;28;20257;-75
2023/04/05 02:18:58;;;;;;;11.83;11.13;;;;;;;-0.28;99.65;92233.16;5111128;28;20196;-75
2023/04/05 02:21:25;;;;;;;12.43;11.63;;;;;;;-0.10;100.00;92242.53;5110078;28;20296;-75
2023/04/05 02:23:51;;;;;;;11.50;10.80;;;;;;;-0.17;99.41;92244.41;5109960;28;20232;-75
2023/04/05 02:26:17;;;;;;;11.20;10.50;;;;;;;-0.34;99.41;92217.88;5110381;27;20430;-75
2023/04/05 02:28:42;;;;;;;12.00;11.30;;;;;;;-0.26;99.82;92232.94;5110511;28;20183;-76
2023/04/05 02:31:11;;;;;;;11.93;11.07;;;;;;;-0.52;99.74;92194.91;5109476;27;21045;-75
2023/04/05 02:33:38;;;;;;;11.40;10.70;;;;;;;-0.10;100.00;92251.00;5109335;28;20192;-75
2023/04/05 02:36:05;;;;;;;12.70;11.90;;;;;;;-0.19;100.00;92236.94;5109989;28;20219;-75
2023/04/05 02:38:31;;;;;;;11.90;11.10;;;;;;;-0.63;100.00;92193.13;5111059;28;20231;-76
2023/04/05 02:40:57;;;;;;;12.30;11.40;;;;;;;-0.64;100.00;92171.81;5110038;28;20219;-75
2023/04/05 02:43:22;;;;;;;11.67;10.97;;;;;;;-0.13;100.00;92243.78;5110463;28;20304;-75
2023/04/05 02:45:48;;;;;;;12.37;11.57;;;;;;;-0.13;100.00;92235.28;5110330;27;20281;-75
2023/04/05 02:48:13;;;;;;;11.90;11.10;;;;;;;-0.26;100.00;92238.84;5110373;28;20183;-75
2023/04/05 02:50:38;;;;;;;12.90;11.93;;;;;;;-0.17;100.00;92245.19;5109626;27;20231;-75
2023/04/05 02:53:04;;;;;;;13.70;12.57;;;;;;;-0.37;100.00;92228.56;5110353;28;20184;-75
2023/04/05 02:55:29;;;;;;;11.57;10.87;;;;;;;-0.39;100.00;92197.28;5109770;28;21388;-75
2023/04/05 02:58:02;;;;;;;11.03;10.33;;;;;;;-0.44;100.00;92203.06;5109249;28;20207;-75
2023/04/05 03:00:27;;;;;;;12.03;11.23;;;;;;;-0.25;100.00;92226.81;5108435;28;20228;-76
2023/04/05 03:02:53;;;;;;;11.00;10.40;;;;;;;-0.34;100.00;92218.66;5109812;28;20222;-76
2023/04/05 03:05:19;;;;;;;12.00;11.20;;;;;;;-0.21;100.00;92238.19;5109527;28;20220;-75
2023/04/05 03:07:45;;;;;;;12.63;11.93;;;;;;;-0.31;100.00;92227.69;5112149;28;20184;-75
2023/04/05 03:10:12;;;;;;;11.73;10.93;;;;;;;-0.20;99.70;92224.34;5110140;28;21213;-76
2023/04/05 03:12:38;;;;;;;10.50;9.80;;;;;;;-0.15;99.91;92232.16;5108401;28;20191;-76
2023/04/05 03:15:04;;;;;;;11.50;10.90;;;;;;;-0.53;99.56;92165.16;5109449;27;20289;-75
2023/04/05 03:17:29;;;;;;;11.20;10.50;;;;;;;-0.38;99.19;92196.25;5110037;28;20188;-75
2023/04/05 03:19:55;;;;;;;11.43;10.77;;;;;;;-0.26;98.57;92222.66;5110175;28;20238;-76
2023/04/05 03:22:20;;;;;;;11.53;10.93;;;;;;;-0.41;97.78;92186.44;5112021;28;20207;-75
2023/04/05 03:24:46;;;;;;;11.43;10.73;;;;;;;-0.23;98.83;92235.84;5109840;28;20211;-72
2023/04/05 03:27:13;;;;;;;11.03;10.33;;;;;;;-0.32;98.51;92221.00;5110415;28;20198;-71
2023/04/05 03:29:40;;;;;;;10.53;9.90;;;;;;;-0.23;98.70;92232.47;5107096;27;20226;-72
2023/04/05 03:32:10;;;;;;;10.87;10.17;;;;;;;-0.25;99.39;92244.78;5108468;28;20184;-73
2023/04/05 03:34:37;;;;;;;10.70;10.10;;;;;;;-0.18;99.30;92224.91;5109426;27;20202;-73
2023/04/05 03:37:03;;;;;;;11.90;11.30;;;;;;;-0.14;100.00;92239.63;5110655;28;20171;-73
2023/04/05 03:39:28;;;;;;;11.70;11.00;;;;;;;-0.23;100.00;92215.31;5108341;28;20187;-72
2023/04/05 03:41:55;;;;;;;12.30;11.57;;;;;;;-0.35;100.00;92196.59;5109424;28;20192;-73
2023/04/05 03:44:20;;;;;;;11.00;10.30;;;;;;;-0.26;100.00;92240.63;5108375;28;20208;-74
2023/04/05 03:46:46;;;;;;;12.93;12.03;;;;;;;-0.40;100.00;92219.56;5108890;28;20191;-78
2023/04/05 03:49:11;;;;;;;11.37;10.77;;;;;;;-0.37;100.00;92218.31;5108482;28;20195;-78
2023/04/05 03:51:36;;;;;;;12.33;11.53;;;;;;;-0.20;100.00;92235.38;5109666;28;20223;-75
2023/04/05 03:54:02;;;;;;;11.30;10.70;;;;;;;-0.08;100.00;92256.69;5108911;28;20603;-68
2023/04/05 03:56:27;;;;;;;10.57;9.87;;;;;;;-0.21;100.00;92259.47;5106062;28;20219;-67
2023/04/05 03:58:53;;;;;;;11.47;10.77;;;;;;;-0.23;100.00;92235.84;5108252;28;20184;-69
2023/04/05 04:01:18;;;;;;;11.07;10.47;;;;;;;-0.40;100.00;92263.13;5106278;28;20424;-66
2023/04/05 04:03:44;;;;;;;11.00;10.30;;;;;;;-0.41;100.00;92246.22;5107112;28;20227;-66
2023/04/05 04:06:10;;;;;;;11.70;11.07;;;;;;;-0.11;100.00;92264.81;5104231;28;20288;-66
2023/04/05 04:08:35;;;;;;;11.03;10.40;;;;;;;-0.31;100.00;92268.72;5110154;28;20210;-68
2023/04/05 04:11:01;;;;;;;13.10;12.30;;;;;;;-0.27;100.00;92251.91;5111342;28;20272;-66
2023/04/05 04:13:26;;;;;;;12.30;11.50;;;;;;;-0.23;100.00;92266.63;5110962;28;20184;-67
2023/04/05 04:15:52;;;;;;;12.23;11.43;;;;;;;-0.24;100.00;92265.06;5111628;27;20254;-67
2023/04/05 04:18:17;;;;;;;12.20;11.33;;;;;;;-0.37;100.00;92249.09;5112166;28;20203;-68
2023/04/05 04:20:42;;;;;;;12.30;11.40;;;;;;;-0.22;100.00;92254.56;5111155;27;20219;-67
2023/04/05 04:23:09;;;;;;;12.87;11.97;;;;;;;-0.16;100.00;92261.38;5112598;28;20246;-66
2023/04/05 04:25:37;;;;;;;11.87;11.03;;;;;;;-0.37;100.00;92223.44;5112118;28;20310;-68
2023/04/05 04:28:06;;;;;;;11.23;10.53;;;;;;;-0.08;100.00;92272.06;5112742;28;20214;-69
2023/04/05 04:30:33;;;;;;;11.20;10.40;;;;;;;0.10;100.00;92278.88;5110831;28;20224;-68
2023/04/05 04:33:03;;;;;;;11.13;10.53;;;;;;;0.12;100.00;92279.44;5112373;28;20196;-65
2023/04/05 04:35:30;;;;;;;9.93;9.43;;;;;;;0.10;99.42;92276.31;5109577;27;20212;-66
2023/04/05 04:37:58;;;;;;;10.00;9.60;;;;;;;0.12;99.15;92282.03;5111543;28;20192;-67
2023/04/05 04:40:24;;;;;;;9.73;9.37;;;;;;;0.56;100.00;92281.41;5111199;28;20232;-68
2023/04/05 04:42:50;;;;;;;9.40;9.00;;;;;;;0.28;93.56;92283.88;5110952;28;20210;-68
2023/04/05 04:45:18;;;;;;;10.97;10.47;;;;;;;0.18;95.15;92288.03;5110000;27;20247;-68
2023/04/05 04:47:45;;;;;;;10.30;9.63;;;;;;;0.29;95.93;92284.69;5110551;28;20184;-72
2023/04/05 04:50:12;;;;;;;11.03;10.53;;;;;;;0.41;93.23;92291.38;5111784;28;20220;-68
2023/04/05 04:52:39;;;;;;;8.73;8.43;;;;;;;0.45;90.69;92278.88;5112977;28;20218;-68
2023/04/05 04:55:07;;;;;;;8.80;8.40;;;;;;;0.56;89.83;92278.84;5111660;27;20298;-69
2023/04/05 04:57:32;;;;;;;9.07;8.70;;;;;;;0.59;88.10;92278.38;5111858;28;20185;-69
2023/04/05 04:59:57;;;;;;;9.60;9.20;;;;;;;0.51;89.33;92294.16;5111089;27;20248;-69
2023/04/05 05:02:24;;;;;;;9.00;8.63;;;;;;;0.50;89.95;92294.38;5111664;28;20243;-70
2023/04/05 05:04:50;;;;;;;9.87;9.47;;;;;;;0.14;90.63;92268.97;5110237;27;20221;-73
2023/04/05 05:07:16;;;;;;;10.30;9.80;;;;;;;0.43;90.89;92281.66;5110621;28;20183;-72
2023/04/05 05:09:42;;;;;;;9.67;9.27;;;;;;;0.39;90.75;92272.84;5108811;28;21332;-72
2023/04/05 05:12:07;;;;;;;9.70;9.20;;;;;;;0.27;91.69;92289.25;5110326;28;20174;-73
2023/04/05 05:14:33;;;;;;;9.83;9.33;;;;;;;0.28;93.08;92286.44;5110931;28;20182;-73
2023/04/05 05:16:58;;;;;;;9.80;9.30;;;;;;;0.29;93.90;92298.31;5111916;28;20196;-73
2023/04/05 05:19:24;;;;;;;10.10;9.60;;;;;;;0.23;93.92;92267.63;5111037;28;20180;-74
2023/04/05 05:21:51;;;;;;;9.50;9.10;;;;;;;0.53;91.92;92293.94;5111649;28;20184;-73
2023/04/05 05:24:17;;;;;;;10.23;9.73;;;;;;;0.53;91.75;92302.41;5111272;28;20957;-73
2023/04/05 05:26:42;;;;;;;9.47;8.97;;;;;;;0.43;91.62;92298.84;5111009;28;20219;-72
2023/04/05 05:29:08;;;;;;;9.83;9.40;;;;;;;0.55;92.40;92295.25;5111653;28;20248;-73
2023/04/05 05:31:33;;;;;;;10.77;10.20;;;;;;;0.39;93.01;92292.59;5110157;28;20228;-73
2023/04/05 05:33:58;;;;;;;11.00;10.50;;;;;;;0.47;93.24;92266.59;5111134;28;20203;-73
2023/04/05 05:36:26;;;;;;;10.43;9.93;;;;;;;0.25;93.32;92265.63;5110670;28;20227;-73
2023/04/05 05:38:53;;;;;;;11.63;11.13;;;;;;;0.39;94.08;92270.25;5109724;28;20240;-73
2023/04/05 05:41:18;;;;;;;10.23;9.63;;;;;;;0.43;94.00;92283.44;5112233;28;21892;-73
2023/04/05 05:43:43;;;;;;;11.17;10.43;;;;;;;0.38;94.70;92268.72;5110436;28;20212;-73
2023/04/05 05:46:09;;;;;;;10.73;10.13;;;;;;;0.30;94.39;92253.66;5111146;27;20246;-73
2023/04/05 05:48:35;;;;;;;11.00;10.47;;;;;;;0.53;94.23;92256.19;5109669;28;20195;-73
2023/04/05 05:51:01;;;;;;;12.43;11.53;;;;;;;0.81;94.39;92289.59;5110756;28;20223;-73
2023/04/05 05:53:26;;;;;;;10.80;10.10;;;;;;;0.90;94.89;92270.25;5112650;28;20188;-73
2023/04/05 05:55:52;;;;;;;10.63;10.13;;;;;;;1.17;88.92;92279.00;5111809;28;20280;-73
2023/04/05 05:58:17;;;;;;;10.53;10.03;;;;;;;1.02;83.82;92288.22;5112301;28;20187;-72
2023/04/05 06:00:43;;;;;;;9.57;9.17;;;;;;;1.10;85.78;92293.78;5111508;28;20510;-73
2023/04/05 06:03:09;;;;;;;11.27;10.67;;;;;;;1.11;85.24;92281.69;5110485;28;20226;-73
2023/04/05 06:05:35;;;;;;;10.20;9.77;;;;;;;1.20;83.81;92286.25;5109859;28;20996;-73
2023/04/05 06:08:02;;;;;;;9.43;8.93;;;;;;;1.32;81.15;92286.97;5112924;28;20215;-73
2023/04/05 06:10:29;;;;;;;9.67;9.07;;;;;;;1.47;80.82;92300.09;5111496;28;20243;-74
2023/04/05 06:12:54;;;;;;;8.10;7.80;;;;;;;1.40;79.60;92309.75;5111270;28;20244;-72
2023/04/05 06:15:20;;;;;;;9.70;9.30;;;;;;;1.41;78.04;92298.47;5110481;28;20235;-72
2023/04/05 06:17:45;;;;;;;10.07;9.57;;;;;;;1.67;77.91;92293.75;5111130;28;20176;-73
2023/04/05 06:20:11;;;;;;;9.67;9.23;;;;;;;1.74;75.69;92299.50;5110821;27;20231;-73
2023/04/05 06:22:39;;;;;;;10.10;9.60;;;;;;;1.74;75.24;92300.31;5112456;28;20222;-72
2023/04/05 06:25:06;;;;;;;8.63;8.33;;;;;;;1.90;76.06;92311.63;5110906;27;20295;-73
2023/04/05 06:27:32;;;;;;;9.77;9.37;;;;;;;1.93;75.76;92324.03;5111509;28;20193;-72
2023/04/05 06:30:01;;;;;;;8.93;8.50;;;;;;;1.76;75.32;92272.53;5110345;27;20227;-73
2023/04/05 06:32:26;;;;;;;9.00;8.60;;;;;;;1.98;75.06;92316.38;5109933;28;20195;-73
2023/04/05 06:34:52;;;;;;;9.13;8.83;;;;;;;2.00;74.60;92307.41;5108996;28;20227;-71
2023/04/05 06:37:17;;;;;;;9.87;9.40;;;;;;;2.18;74.44;92312.31;5112144;28;20261;-73
2023/04/05 06:39:43;;;;;;;8.70;8.33;;;;;;;2.33;73.55;92299.66;5110331;28;20227;-73
2023/04/05 06:42:08;;;;;;;9.67;9.27;;;;;;;2.46;72.97;92324.31;5111748;28;20171;-73
2023/04/05 06:44:34;;;;;;;9.57;9.23;;;;;;;2.22;72.97;92313.41;5112766;28;20233;-73
2023/04/05 06:46:59;;;;;;;8.83;8.53;;;;;;;2.20;71.05;92281.16;5110025;28;20192;-73
2023/04/05 06:49:24;;;;;;;8.90;8.60;;;;;;;2.34;72.93;92306.38;5109936;28;20188;-73
2023/04/05 06:51:50;;;;;;;8.97;8.67;;;;;;;2.71;73.22;92332.38;5109849;28;20187;-74
2023/04/05 06:54:15;;;;;;;10.53;10.03;;;;;;;2.71;71.25;92332.38;5110655;28;20199;-73
2023/04/05 06:56:40;;;;;;;8.50;8.20;;;;;;;2.39;72.83;92328.84;5110586;27;20231;-73
2023/04/05 06:59:06;;;;;;;8.20;7.90;;;;;;;2.22;72.76;92318.56;5110332;28;20196;-72
2023/04/05 07:01:32;;;;;;;8.90;8.60;;;;;;;2.22;74.23;92330.66;5111026;28;20238;-74
2023/04/05 07:03:57;;;;;;;8.83;8.53;;;;;;;2.40;72.64;92356.94;5109716;28;20231;-73
2023/04/05 07:06:25;;;;;;;9.43;9.03;;;;;;;2.18;73.17;92353.50;5109271;28;20243;-72
2023/04/05 07:08:51;;;;;;;9.47;9.07;;;;;;;1.92;73.13;92299.28;5109722;28;20188;-74
2023/04/05 07:11:16;;;;;;;8.83;8.50;;;;;;;2.29;73.40;92352.66;5109718;28;20227;-73
2023/04/05 07:13:42;;;;;;;9.43;9.13;;;;;;;2.21;76.35;92344.53;5110762;28;20212;-73
2023/04/05 07:16:07;;;;;;;8.77;8.47;;;;;;;2.21;75.79;92349.69;5094109;28;20250;-73
2023/04/05 07:18:32;;;;;;;9.30;9.00;;;;;;;2.02;75.26;92363.81;5089740;28;20216;-73
2023/04/05 07:21:02;;;;;;;9.17;8.87;;;;;;;2.14;76.58;92352.41;5103052;28;20235;-73
2023/04/05 07:23:29;;;;;;;10.07;9.67;;;;;;;2.09;76.35;92354.13;5110033;28;20196;-73
2023/04/05 07:25:58;;;;;;;9.47;9.07;;;;;;;2.01;74.74;92362.25;5108494;28;20212;-72
2023/04/05 07:28:23;;;;;;;8.27;7.97;;;;;;;1.90;75.59;92357.94;5110117;28;20192;-73
2023/04/05 07:30:49;;;;;;;9.93;9.37;;;;;;;1.97;76.09;92350.84;5109094;28;20226;-74
2023/04/05 07:33:15;;;;;;;8.83;8.53;;;;;;;1.91;77.60;92359.50;5109275;28;20184;-73
2023/04/05 07:35:40;;;;;;;8.87;8.50;;;;;;;1.92;77.79;92353.31;5110222;28;20324;-73
2023/04/05 07:38:05;;;;;;;8.90;8.50;;;;;;;2.01;78.92;92359.69;5108712;28;20246;-72
2023/04/05 07:40:31;;;;;;;8.90;8.40;;;;;;;1.62;80.16;92317.56;5111556;28;20220;-74
2023/04/05 07:42:56;;;;;;;9.07;8.57;;;;;;;1.26;79.07;92292.28;5109804;28;20269;-73
2023/04/05 07:45:21;;;;;;;10.37;9.87;;;;;;;1.71;78.10;92377.16;5113123;28;20279;-73
2023/04/05 07:47:47;;;;;;;9.07;8.67;;;;;;;1.61;79.07;92365.69;5113834;28;20183;-73
2023/04/05 07:50:13;;;;;;;8.53;8.23;;;;;;;1.90;81.02;92375.97;5113139;28;20310;-74
2023/04/05 07:52:40;;;;;;;10.13;9.73;;;;;;;1.52;81.54;92328.50;5114602;28;20203;-74
2023/04/05 07:55:07;;;;;;;9.50;9.10;;;;;;;1.59;81.12;92379.78;5113700;27;20246;-72
2023/04/05 07:57:33;;;;;;;9.70;9.27;;;;;;;1.53;82.23;92371.19;5114632;28;20183;-73
2023/04/05 07:59:58;;;;;;;9.47;9.03;;;;;;;1.23;83.05;92375.75;5113995;28;20223;-73
2023/04/05 08:02:24;;;;;;;9.33;8.83;;;;;;;1.29;82.92;92364.56;5113009;28;20195;-73
2023/04/05 08:04:49;;;;;;;9.07;8.67;;;;;;;1.41;82.60;92377.38;5112502;28;20212;-73
2023/04/05 08:07:15;;;;;;;9.80;9.40;;;;;;;1.43;81.55;92378.72;5113904;28;20184;-73
2023/04/05 08:09:40;;;;;;;9.30;9.00;;;;;;;1.49;83.62;92389.88;5113853;28;20223;-73
2023/04/05 08:12:06;;;;;;;9.33;8.93;;;;;;;1.60;84.85;92382.09;5113081;28;20958;-72
2023/04/05 08:14:32;;;;;;;10.30;9.80;;;;;;;1.49;84.34;92382.94;5112929;27;20184;-73
2023/04/05 08:16:57;;;;;;;9.07;8.57;;;;;;;1.54;83.72;92370.16;5112832;28;20188;-73
2023/04/05 08:19:22;;;;;;;9.10;8.50;;;;;;;1.23;82.90;92355.19;5112556;28;20188;-73
2023/04/05 08:21:48;;;;;;;9.83;9.40;;;;;;;1.66;83.08;92393.28;5113558;28;20188;-73
2023/04/05 08:24:13;;;;;;;9.87;9.47;;;;;;;1.42;83.05;92378.94;5114713;28;20223;-73
2023/04/05 08:26:40;;;;;;;8.93;8.63;;;;;;;1.44;83.25;92353.78;5112249;27;20215;-73
2023/04/05 08:29:06;;;;;;;8.87;8.47;;;;;;;1.56;83.07;92393.88;5113821;28;20214;-73
2023/04/05 08:31:32;;;;;;;9.37;8.97;;;;;;;1.45;82.14;92399.06;5113475;27;20223;-73
2023/04/05 08:33:58;;;;;;;9.93;9.53;;;;;;;1.50;83.21;92407.66;5113026;28;20183;-74
2023/04/05 08:36:23;;;;;;;9.47;8.97;;;;;;;1.52;84.64;92372.22;5110529;28;20215;-74
2023/04/05 08:38:48;;;;;;;9.47;9.07;;;;;;;1.68;83.45;92401.56;5113673;28;20180;-73
2023/04/05 08:41:18;;;;;;;9.47;9.07;;;;;;;1.71;83.56;92420.91;5112110;28;20228;-73
2023/04/05 08:43:56;;;;;;;9.17;8.77;;;;;;;2.08;81.53;92414.34;5114033;28;20207;-74
2023/04/05 08:46:23;;;;;;;9.73;9.23;;;;;;;1.81;82.33;92409.00;5112569;28;20235;-74
2023/04/05 08:48:49;;;;;;;9.57;9.17;;;;;;;1.74;82.64;92402.44;5113381;28;20215;-73
2023/04/05 08:51:21;;;;;;;9.30;9.00;;;;;;;1.52;83.60;92400.50;5111983;27;20236;-73
2023/04/05 08:53:47;;;;;;;9.33;8.93;;;;;;;1.72;82.82;92422.44;5113494;28;20169;-73
2023/04/05 08:56:15;;;;;;;9.90;9.50;;;;;;;1.67;82.49;92418.00;5114698;28;20253;-74
2023/04/05 08:59:00;;;;;;;9.30;8.90;;;;;;;1.88;82.56;92417.38;5112800;28;20184;-73
2023/04/05 09:01:29;;;;;;;11.23;10.27;;;;;;;2.19;82.58;92416.88;5110547;27;20291;-74
2023/04/05 09:03:57;;;;;;;9.97;9.57;;;;;;;2.17;79.75;92443.84;5114215;28;20208;-73
2023/04/05 09:06:23;;;;;;;10.90;10.40;;;;;;;2.31;79.53;92411.63;5113578;28;20898;-74
2023/04/05 09:08:49;;;;;;;9.33;9.03;;;;;;;2.19;77.29;92410.94;5112856;28;20188;-73
2023/04/05 09:11:15;;;;;;;9.63;9.03;;;;;;;1.89;79.78;92406.06;5109870;28;20227;-72
2023/04/05 09:13:41;;;;;;;9.93;9.43;;;;;;;2.54;80.52;92430.31;5112394;28;20204;-73
2023/04/05 09:16:06;;;;;;;9.70;9.20;;;;;;;2.48;77.06;92415.78;5112307;28;20231;-74
2023/04/05 09:18:32;;;;;;;8.87;8.57;;;;;;;2.41;77.55;92446.06;5112366;28;20266;-74
2023/04/05 09:21:04;;;;;;;9.53;9.13;;;;;;;2.18;77.75;92427.41;5111112;28;20251;-73
2023/04/05 09:23:30;;;;;;;9.20;8.80;;;;;;;2.25;78.35;92440.91;5112110;28;20831;-73
2023/04/05 09:25:56;;;;;;;8.43;8.07;;;;;;;2.11;78.64;92412.09;5111334;28;20252;-73
2023/04/05 09:28:21;;;;;;;9.70;9.30;;;;;;;2.38;77.82;92448.34;5112743;28;20188;-74
2023/04/05 09:30:47;;;;;;;8.77;8.47;;;;;;;2.65;76.04;92446.69;5110785;27;20224;-74
2023/04/05 09:33:17;;;;;;;8.70;8.37;;;;;;;2.75;77.00;92442.50;5110996;28;20185;-73
2023/04/05 09:35:43;;;;;;;10.83;10.33;;;;;;;2.57;77.53;92444.53;5110718;27;20237;-73
2023/04/05 09:38:09;;;;;;;9.27;8.90;;;;;;;2.92;77.81;92424.44;5110813;28;20239;-72
2023/04/05 09:40:41;;;;;;;10.80;10.30;;;;;;;2.92;80.16;92437.31;5112362;27;20223;-73
2023/04/05 09:43:07;;;;;;;10.40;9.90;;;;;;;2.93;81.66;92442.25;5110636;28;20216;-73
2023/04/05 09:45:41;;;;;;;9.60;9.20;;;;;;;3.19;80.64;92438.22;5110943;28;20246;-74
2023/04/05 09:48:08;;;;;;;10.17;9.67;;;;;;;3.07;79.68;92440.09;5112251;28;20182;-74
2023/04/05 09:50:34;;;;;;;11.13;10.63;;;;;;;2.48;82.24;92417.56;5111849;28;20261;-72
2023/04/05 09:53:14;;;;;;;10.33;9.73;;;;;;;2.43;83.05;92438.88;5111385;28;20188;-73
2023/04/05 09:55:40;;;;;;;10.77;10.27;;;;;;;2.82;83.42;92445.69;5108955;28;20231;-74
2023/04/05 09:58:11;;;;;;;11.07;10.47;;;;;;;2.58;83.40;92410.81;5111306;28;20164;-73
2023/04/05 10:00:36;;;;;;;10.73;10.13;;;;;;;2.99;82.21;92448.22;5109754;28;20242;-73
2023/04/05 10:03:02;;;;;;;10.57;10.07;;;;;;;2.68;84.14;92452.16;5110421;28;20208;-73
2023/04/05 10:05:28;;;;;;;11.27;10.73;;;;;;;2.51;81.20;92432.56;5110132;28;20223;-73
2023/04/05 10:07:56;;;;;;;10.93;10.37;;;;;;;2.30;81.90;92438.41;5110792;28;20216;-73
2023/04/05 10:10:23;;;;;;;10.93;10.43;;;;;;;2.71;80.56;92438.03;5110934;28;20224;-73
2023/04/05 10:12:49;;;;;;;10.57;10.07;;;;;;;2.61;78.62;92440.47;5107777;28;20283;-74
2023/04/05 10:15:15;;;;;;;9.23;8.90;;;;;;;2.73;76.88;92457.41;5110347;28;20276;-73
2023/04/05 10:18:29;;;;;;;11.90;11.30;;;;;;;2.37;77.93;92454.50;5110983;28;20188;-72
2023/04/05 10:20:57;;;;;;;11.10;10.50;;;;;;;2.26;78.31;92445.03;5097825;28;20231;-74
2023/04/05 10:23:30;;;;;;;9.23;8.73;;;;;;;2.25;78.08;92479.53;5109230;28;20220;-74
2023/04/05 10:26:15;;;;;;;12.43;11.70;;;;;;;2.53;78.60;92461.47;5109087;28;20220;-72
2023/04/05 10:28:49;;;;;;;11.23;10.63;;;;;;;2.10;79.58;92410.53;5109989;28;20184;-72
2023/04/05 10:31:47;;;;;;;11.80;11.10;;;;;;;2.50;77.90;92457.56;5111200;28;20236;-73
2023/04/05 10:34:21;;;;;;;10.57;10.07;;;;;;;2.29;80.03;92431.72;5108520;28;20184;-73
2023/04/05 10:36:54;;;;;;;10.93;10.23;;;;;;;2.33;78.08;92455.97;5109998;28;20730;-72
2023/04/05 10:39:38;;;;;;;11.40;10.73;;;;;;;2.18;79.46;92463.47;5109900;28;20184;-73
2023/04/05 10:42:16;;;;;;;11.83;11.23;;;;;;;1.56;80.50;92449.69;5110807;28;20195;-72
2023/04/05 10:44:44;;;;;;;11.67;10.73;;;;;;;1.95;81.05;92453.22;5110574;28;20232;-73
2023/04/05 10:47:14;;;;;;;11.07;10.47;;;;;;;2.22;80.30;92465.34;5110629;28;20184;-72
2023/04/05 10:49:43;;;;;;;11.63;10.93;;;;;;;2.31;79.08;92460.56;5109626;27;20228;-72
2023/04/05 10:52:08;;;;;;;14.30;13.13;;;;;;;2.12;79.34;92472.88;5110604;28;20245;-72
2023/04/05 10:54:35;;;;;;;11.97;11.27;;;;;;;1.96;80.03;92467.69;5109372;28;20204;-72
2023/04/05 10:57:06;;;;;;;11.73;11.03;;;;;;;2.00;80.63;92464.41;5112196;28;20244;-73
2023/04/05 10:59:33;;;;;;;11.40;10.80;;;;;;;2.20;79.07;92461.41;5108750;28;20186;-73
2023/04/05 11:01:59;;;;;;;11.33;10.30;;;;;;;2.15;79.65;92458.78;5089259;28;20244;-72
2023/04/05 11:04:25;;;;;;;11.87;10.87;;;;;;;2.12;78.85;92456.66;5090037;28;20216;-73
2023/04/05 11:07:16;;;;;;;11.63;11.00;;;;;;;2.66;79.30;92464.50;5110088;28;20177;-73
2023/04/05 11:09:52;;;;;;;12.73;11.80;;;;;;;2.75;78.53;92477.78;5111319;28;20231;-73
2023/04/05 11:12:17;;;;;;;12.10;11.30;;;;;;;2.47;78.09;92423.75;5109603;28;20184;-73
2023/04/05 11:14:43;;;;;;;11.70;11.03;;;;;;;2.48;77.90;92443.34;5110186;28;20288;-73
2023/04/05 11:17:28;;;;;;;12.70;12.00;;;;;;;3.17;76.98;92466.03;5110630;28;20839;-72
2023/04/05 11:20:04;;;;;;;11.70;11.10;;;;;;;2.86;75.47;92472.53;5108362;28;20220;-72
2023/04/05 11:22:29;;;;;;;12.30;11.70;;;;;;;2.48;77.37;92474.25;5109669;28;20187;-72
2023/04/05 11:25:03;;;;;;;12.10;11.33;;;;;;;2.60;77.21;92467.25;5109996;27;20223;-73
2023/04/05 11:27:36;;;;;;;11.87;11.17;;;;;;;2.28;78.17;92484.22;5111012;28;20207;-72